Time;durP1;ratioP1;P1;durP2;ratioP2;P2;SDS_P1;SDS_P2;PMS_P1;PMS_P2;Temp;Humidity;BMP_temperature;BMP_pressure;BME280_temperature;BME280_humidity;BME280_pressure;Samples;Min_cycle;Max_cycle;Signal;HPM_P1;HPM_P2
2023/09/13 03:03:59;;;;;;;64.18;30.67;;;;;;;17.37;100.00;101351.50;5064980;27;20409;-66
2023/09/13 03:06:24;;;;;;;56.28;29.35;;;;;;;17.59;100.00;101345.84;5064207;28;20029;-56
2023/09/13 03:08:49;;;;;;;59.70;30.98;;;;;;;17.74;100.00;101349.47;5065052;28;20040;-65
2023/09/13 03:11:16;;;;;;;63.90;29.95;;;;;;;17.83;100.00;101345.41;5063379;28;20633;-66
2023/09/13 03:13:42;;;;;;;59.33;29.40;;;;;;;17.86;100.00;101337.25;5063310;28;20441;-60
2023/09/13 03:16:16;;;;;;;56.53;29.05;;;;;;;17.86;100.00;101337.25;5064956;28;20426;-66
2023/09/13 03:18:41;;;;;;;58.00;28.70;;;;;;;17.87;100.00;101338.09;5063022;28;20418;-65
2023/09/13 03:21:08;;;;;;;56.85;29.38;;;;;;;18.04;100.00;101339.78;5062527;28;20024;-58
2023/09/13 03:23:36;;;;;;;72.65;32.63;;;;;;;18.17;100.00;101335.50;5064326;28;20056;-66
2023/09/13 03:26:01;;;;;;;74.97;35.03;;;;;;;18.13;100.00;101333.97;5062432;28;20017;-65
2023/09/13 03:28:26;;;;;;;72.60;36.25;;;;;;;18.16;100.00;101339.13;5062685;28;20111;-65
2023/09/13 03:30:52;;;;;;;75.20;37.83;;;;;;;18.20;100.00;101342.44;5063716;28;20113;-63
2023/09/13 03:33:17;;;;;;;77.70;36.67;;;;;;;18.27;100.00;101345.63;5062709;28;20025;-65
2023/09/13 03:35:42;;;;;;;77.75;37.92;;;;;;;18.28;100.00;101337.53;5061324;28;20027;-65
2023/09/13 03:38:08;;;;;;;78.55;37.55;;;;;;;18.30;100.00;101340.09;5064556;28;20404;-66
2023/09/13 03:40:33;;;;;;;79.22;36.90;;;;;;;18.29;100.00;101338.38;5062369;28;20033;-57
2023/09/13 03:42:58;;;;;;;73.18;35.92;;;;;;;18.27;100.00;101348.31;5063013;28;20039;-65
2023/09/13 03:45:24;;;;;;;74.82;35.28;;;;;;;18.19;100.00;101341.59;5064216;28;20044;-67
2023/09/13 03:47:49;;;;;;;71.68;34.05;;;;;;;18.29;100.00;101346.38;5063586;28;20589;-63
2023/09/13 03:50:14;;;;;;;74.38;37.83;;;;;;;18.21;100.00;101341.50;5062124;28;20033;-59
2023/09/13 03:52:40;;;;;;;75.53;37.22;;;;;;;18.16;100.00;101344.47;5063503;28;20025;-65
2023/09/13 03:55:06;;;;;;;86.47;41.92;;;;;;;18.11;100.00;101353.66;5061426;28;20455;-59
2023/09/13 03:57:32;;;;;;;94.95;42.40;;;;;;;18.11;100.00;101348.31;5063519;28;20347;-62
2023/09/13 03:59:57;;;;;;;88.28;42.15;;;;;;;18.12;100.00;101342.91;5063767;28;20025;-64
2023/09/13 04:02:22;;;;;;;94.30;43.70;;;;;;;18.10;100.00;101338.56;5062009;28;20137;-58
2023/09/13 04:04:47;;;;;;;88.40;44.20;;;;;;;18.07;100.00;101334.28;5063177;28;20534;-64
2023/09/13 04:07:13;;;;;;;93.50;44.20;;;;;;;18.05;100.00;101337.03;5062594;28;20024;-65
2023/09/13 04:09:39;;;;;;;98.32;45.95;;;;;;;18.04;100.00;101335.34;5062857;28;20021;-64
2023/09/13 04:12:04;;;;;;;100.00;44.40;;;;;;;18.02;100.00;101336.34;5063473;28;20029;-64
2023/09/13 04:14:30;;;;;;;103.78;47.33;;;;;;;17.99;100.00;101341.84;5053123;28;20074;-63
2023/09/13 04:16:55;;;;;;;114.45;48.53;;;;;;;17.97;100.00;101338.44;5049127;28;20064;-63
2023/09/13 04:19:20;;;;;;;108.18;47.75;;;;;;;17.92;100.00;101336.91;5049156;28;20036;-57
2023/09/13 04:21:46;;;;;;;113.57;49.85;;;;;;;17.90;100.00;101338.78;5048959;28;20099;-62
2023/09/13 04:24:11;;;;;;;116.30;49.45;;;;;;;17.87;100.00;101341.63;5049948;28;20110;-64
2023/09/13 04:26:36;;;;;;;115.55;49.42;;;;;;;17.86;100.00;101336.38;5048560;28;20032;-65
2023/09/13 04:29:05;;;;;;;113.15;50.17;;;;;;;17.84;100.00;101343.59;5048656;28;20033;-63
2023/09/13 04:31:30;;;;;;;111.03;50.05;;;;;;;17.87;100.00;101351.41;5048819;28;20029;-61
2023/09/13 04:33:56;;;;;;;120.97;52.83;;;;;;;17.91;100.00;101350.31;5048841;28;20074;-63
2023/09/13 04:36:21;;;;;;;106.45;50.95;;;;;;;17.88;100.00;101340.66;5049187;28;20119;-63
2023/09/13 04:38:47;;;;;;;115.30;52.00;;;;;;;17.92;100.00;101349.34;5048766;28;20124;-63
2023/09/13 04:41:14;;;;;;;125.53;51.50;;;;;;;17.94;100.00;101344.78;5049610;28;20064;-61
2023/09/13 04:43:39;;;;;;;128.57;53.05;;;;;;;18.00;100.00;101349.75;5047384;28;20032;-62
2023/09/13 04:46:04;;;;;;;119.93;52.35;;;;;;;18.07;100.00;101344.94;5048902;28;20048;-65
2023/09/13 04:48:30;;;;;;;119.70;51.95;;;;;;;18.07;100.00;101358.28;5048761;28;20029;-60
2023/09/13 04:50:55;;;;;;;123.55;52.60;;;;;;;18.11;100.00;101359.84;5048013;28;20064;-64
2023/09/13 04:53:20;;;;;;;85.60;37.60;;;;;;;18.04;100.00;101390.44;5049112;28;20036;-68
2023/09/13 04:55:46;;;;;;;48.42;19.35;;;;;;;17.94;100.00;101392.75;5046849;28;20027;-63
2023/09/13 04:58:11;;;;;;;35.05;10.70;;;;;;;17.87;100.00;101397.59;5049109;28;20071;-65
2023/09/13 05:00:37;;;;;;;31.67;8.85;;;;;;;17.75;100.00;101401.81;5047486;28;20059;-61
2023/09/13 05:03:02;;;;;;;21.00;4.22;;;;;;;17.56;100.00;101401.97;5048003;28;20080;-63
2023/09/13 05:05:27;;;;;;;20.95;4.53;;;;;;;17.54;100.00;101398.50;5081035;28;20530;-65
2023/09/13 05:07:54;;;;;;;18.52;3.63;;;;;;;17.43;100.00;101405.28;5048996;28;20032;-60
2023/09/13 05:10:20;;;;;;;19.50;3.70;;;;;;;17.29;100.00;101408.72;5049596;28;20024;-66
2023/09/13 05:12:48;;;;;;;15.00;3.72;;;;;;;17.35;100.00;101418.16;5048860;28;20047;-65
2023/09/13 05:15:13;;;;;;;17.13;3.00;;;;;;;17.15;100.00;101428.06;5049182;28;20021;-64
2023/09/13 05:17:38;;;;;;;9.82;2.15;;;;;;;16.73;100.00;101431.97;5047613;28;20290;-65
2023/09/13 05:20:05;;;;;;;3.70;1.33;;;;;;;16.65;100.00;101433.22;5046295;28;20032;-64
2023/09/13 05:22:30;;;;;;;3.50;1.40;;;;;;;16.38;100.00;101446.09;5045911;28;20040;-58
2023/09/13 05:24:55;;;;;;;3.63;1.45;;;;;;;16.29;100.00;101450.91;5046818;28;20170;-65
2023/09/13 05:27:21;;;;;;;5.45;1.48;;;;;;;16.17;100.00;101438.22;5048364;28;20482;-64
2023/09/13 05:29:47;;;;;;;4.38;1.27;;;;;;;16.16;100.00;101449.78;5048335;28;20029;-66
2023/09/13 05:32:13;;;;;;;6.47;1.70;;;;;;;15.98;100.00;101449.72;5048651;28;20035;-63
2023/09/13 05:34:38;;;;;;;4.53;1.13;;;;;;;15.86;100.00;101451.13;5046562;28;20029;-66
2023/09/13 05:37:04;;;;;;;6.95;1.30;;;;;;;15.90;100.00;101458.03;5047012;28;20367;-53
2023/09/13 05:39:29;;;;;;;3.90;1.55;;;;;;;15.74;100.00;101459.69;5047838;28;20104;-65
2023/09/13 05:41:55;;;;;;;6.63;2.17;;;;;;;15.83;100.00;101471.69;5047594;28;20123;-63
2023/09/13 05:44:22;;;;;;;4.40;1.30;;;;;;;15.63;100.00;101482.25;5048481;28;20021;-62
2023/09/13 05:46:47;;;;;;;6.43;1.52;;;;;;;15.59;100.00;101470.06;5046782;28;20606;-63
2023/09/13 05:49:12;;;;;;;5.22;1.63;;;;;;;15.62;100.00;101475.25;5047491;28;20104;-63
2023/09/13 05:51:38;;;;;;;4.55;1.75;;;;;;;15.74;100.00;101479.13;5046655;28;20426;-60
2023/09/13 05:54:03;;;;;;;5.10;1.42;;;;;;;15.57;100.00;101494.97;5046037;28;20552;-60
2023/09/13 05:56:29;;;;;;;5.75;1.70;;;;;;;15.67;100.00;101485.66;5044641;28;20025;-62
2023/09/13 05:58:54;;;;;;;4.43;1.23;;;;;;;15.64;100.00;101505.25;5045317;28;20033;-54
2023/09/13 06:01:19;;;;;;;4.00;1.40;;;;;;;15.74;100.00;101523.44;5047000;28;20032;-61
2023/09/13 06:03:45;;;;;;;10.82;1.85;;;;;;;15.73;100.00;101529.69;5046514;28;20175;-63
2023/09/13 06:06:11;;;;;;;4.20;1.38;;;;;;;15.79;100.00;101521.44;5046598;28;20100;-58
2023/09/13 06:08:36;;;;;;;6.25;1.83;;;;;;;15.77;100.00;101544.53;5046283;28;20032;-60
2023/09/13 06:11:02;;;;;;;5.18;1.73;;;;;;;15.87;100.00;101545.00;5045328;28;20437;-64
2023/09/13 06:13:27;;;;;;;6.85;1.80;;;;;;;15.76;100.00;101548.13;5046340;28;20025;-61
2023/09/13 06:15:52;;;;;;;6.38;1.45;;;;;;;15.72;100.00;101559.84;5045250;28;20016;-60
2023/09/13 06:18:18;;;;;;;5.28;1.70;;;;;;;15.82;100.00;101565.59;5045024;28;20052;-59
2023/09/13 06:20:43;;;;;;;10.77;2.00;;;;;;;15.62;100.00;101568.22;5046269;28;20352;-63
2023/09/13 06:23:34;;;;;;;6.20;1.73;;;;;;;15.69;100.00;101575.91;5045257;28;20476;-61
2023/09/13 06:26:00;;;;;;;8.00;1.92;;;;;;;15.78;100.00;101573.69;5036788;28;20532;-59
2023/09/13 06:28:25;;;;;;;7.68;1.95;;;;;;;15.87;100.00;101588.38;5044467;28;20087;-60
2023/09/13 06:30:50;;;;;;;6.32;1.60;;;;;;;15.96;100.00;101586.25;5044175;28;20017;-65
2023/09/13 06:33:16;;;;;;;6.30;1.60;;;;;;;15.98;100.00;101593.25;5045522;28;20025;-62
2023/09/13 06:35:41;;;;;;;6.88;1.83;;;;;;;15.88;100.00;101595.44;5045234;28;20032;-63
2023/09/13 06:38:06;;;;;;;4.70;2.03;;;;;;;15.86;100.00;101602.59;5046222;28;20371;-63
2023/09/13 06:40:33;;;;;;;4.30;1.73;;;;;;;15.77;100.00;101605.66;5043989;28;20017;-63
2023/09/13 06:42:59;;;;;;;4.78;1.85;;;;;;;15.84;100.00;101604.47;5044323;28;20021;-62
2023/09/13 06:45:24;;;;;;;7.38;1.95;;;;;;;15.83;100.00;101608.03;5046003;28;20142;-61
2023/09/13 06:47:50;;;;;;;4.53;1.45;;;;;;;15.81;100.00;101604.63;5037934;28;20025;-62
2023/09/13 06:50:15;;;;;;;6.88;2.00;;;;;;;15.88;100.00;101607.84;5045726;28;20486;-62
2023/09/13 06:52:41;;;;;;;4.78;1.48;;;;;;;15.94;100.00;101617.34;5044011;28;20161;-60
2023/09/13 06:55:06;;;;;;;4.93;1.48;;;;;;;15.83;100.00;101616.00;5045101;28;20021;-63
2023/09/13 06:57:31;;;;;;;3.88;1.73;;;;;;;15.89;100.00;101623.72;5061170;28;20360;-55
2023/09/13 06:59:57;;;;;;;3.63;1.40;;;;;;;15.84;100.00;101624.88;5044660;28;20025;-59
2023/09/13 07:02:22;;;;;;;4.82;1.40;;;;;;;15.90;100.00;101624.59;5045819;28;20044;-57
2023/09/13 07:04:48;;;;;;;4.05;1.67;;;;;;;15.76;100.00;101626.06;5044190;28;20029;-61
2023/09/13 07:07:13;;;;;;;1.85;1.20;;;;;;;15.92;100.00;101639.53;5044037;28;20036;-62
2023/09/13 07:09:40;;;;;;;4.47;1.48;;;;;;;15.88;100.00;101637.97;5046060;28;20442;-62
2023/09/13 07:12:06;;;;;;;4.57;1.25;;;;;;;16.02;100.00;101641.84;5045065;28;20021;-56
2023/09/13 07:14:31;;;;;;;1.27;1.00;;;;;;;16.11;100.00;101648.53;5045906;28;20040;-66
2023/09/13 07:16:57;;;;;;;3.58;1.10;;;;;;;16.22;100.00;101662.19;5046255;28;20464;-64
2023/09/13 07:19:22;;;;;;;3.40;1.45;;;;;;;16.47;100.00;101662.91;5049616;28;20029;-58
2023/09/13 07:21:49;;;;;;;4.13;1.35;;;;;;;16.62;100.00;101664.84;5026619;28;20022;-59
2023/09/13 07:24:15;;;;;;;3.42;1.58;;;;;;;16.85;100.00;101662.03;5025211;28;20556;-62
2023/09/13 07:26:41;;;;;;;6.50;1.35;;;;;;;16.89;100.00;101659.16;5039293;28;20056;-60
2023/09/13 07:29:06;;;;;;;3.42;1.48;;;;;;;17.00;100.00;101671.06;5052025;28;20040;-62
2023/09/13 07:31:32;;;;;;;2.50;1.20;;;;;;;17.26;100.00;101669.88;5044495;28;20131;-60
2023/09/13 07:34:02;;;;;;;1.80;1.10;;;;;;;17.42;100.00;101666.41;5045775;28;20471;-64
2023/09/13 07:36:27;;;;;;;2.13;0.90;;;;;;;17.79;100.00;101666.38;5043182;28;20056;-61
2023/09/13 07:38:53;;;;;;;5.63;1.35;;;;;;;18.10;100.00;101669.25;5044810;28;20056;-63
2023/09/13 07:41:18;;;;;;;2.15;0.88;;;;;;;18.13;100.00;101672.66;5045073;28;20083;-64
2023/09/13 07:43:43;;;;;;;2.20;1.13;;;;;;;18.24;100.00;101674.72;5045129;28;20476;-64
2023/09/13 07:46:09;;;;;;;3.30;1.27;;;;;;;18.25;100.00;101684.47;5050494;28;20021;-63
2023/09/13 07:48:34;;;;;;;1.75;1.05;;;;;;;18.36;100.00;101680.38;5043735;28;20031;-62
2023/09/13 07:51:00;;;;;;;2.70;1.20;;;;;;;18.56;100.00;101697.97;5047139;28;20086;-62
2023/09/13 07:53:25;;;;;;;2.38;1.00;;;;;;;18.62;100.00;101708.31;5049101;28;20032;-64
2023/09/13 07:55:50;;;;;;;5.10;1.17;;;;;;;18.50;100.00;101709.81;5044947;28;20104;-64
2023/09/13 07:58:16;;;;;;;2.28;1.20;;;;;;;18.60;100.00;101720.03;5048501;28;20033;-64
2023/09/13 08:00:43;;;;;;;11.00;1.23;;;;;;;18.90;100.00;101730.81;5048511;28;20021;-61
2023/09/13 08:03:08;;;;;;;7.75;1.40;;;;;;;18.90;100.00;101732.63;5048168;28;20045;-62
2023/09/13 08:05:34;;;;;;;2.53;1.25;;;;;;;19.07;100.00;101734.34;5048323;28;20030;-62
2023/09/13 08:08:00;;;;;;;5.05;1.40;;;;;;;19.04;100.00;101734.53;5047147;28;20041;-63
2023/09/13 08:10:25;;;;;;;3.05;1.20;;;;;;;19.28;100.00;101731.44;5048965;28;20021;-64
2023/09/13 08:12:51;;;;;;;2.90;1.40;;;;;;;19.23;100.00;101736.22;5048171;28;20128;-63
2023/09/13 08:15:16;;;;;;;3.00;1.25;;;;;;;19.33;100.00;101737.41;5047038;28;20032;-63
2023/09/13 08:17:42;;;;;;;2.08;1.10;;;;;;;19.03;100.00;101751.50;5048622;28;20459;-65
2023/09/13 08:20:08;;;;;;;4.10;1.55;;;;;;;19.30;100.00;101754.44;5047989;28;20090;-62
2023/09/13 08:22:34;;;;;;;9.80;1.83;;;;;;;18.99;100.00;101760.63;5046955;28;20134;-61
2023/09/13 08:25:00;;;;;;;3.03;1.45;;;;;;;18.86;100.00;101761.31;5049333;28;20113;-62
2023/09/13 08:27:25;;;;;;;2.35;2.08;;;;;;;19.01;100.00;101769.41;5046805;28;20020;-64
2023/09/13 08:29:53;;;;;;;3.47;1.30;;;;;;;19.27;100.00;101778.66;5047492;28;20041;-63
2023/09/13 08:32:18;;;;;;;1.58;1.25;;;;;;;19.32;100.00;101783.75;5048847;28;20036;-63
2023/09/13 08:34:43;;;;;;;2.88;1.50;;;;;;;19.17;100.00;101783.69;5046509;28;20017;-60
2023/09/13 08:37:09;;;;;;;5.35;1.80;;;;;;;19.14;100.00;101785.69;5047335;28;20025;-59
2023/09/13 08:39:34;;;;;;;4.13;1.85;;;;;;;19.15;100.00;101790.91;5047998;28;20013;-61
2023/09/13 08:42:00;;;;;;;5.63;1.70;;;;;;;19.32;100.00;101802.47;5046438;28;20029;-60
2023/09/13 08:44:26;;;;;;;5.25;1.70;;;;;;;19.39;100.00;101803.00;5046786;28;20032;-63
2023/09/13 08:46:56;;;;;;;5.20;1.60;;;;;;;19.30;100.00;101810.56;5048524;28;20512;-64
2023/09/13 08:49:22;;;;;;;5.95;1.73;;;;;;;19.44;100.00;101817.81;5045126;28;20047;-64
2023/09/13 08:51:48;;;;;;;4.95;1.80;;;;;;;19.31;100.00;101824.78;5045953;28;20029;-63
2023/09/13 08:54:14;;;;;;;4.80;1.50;;;;;;;19.42;100.00;101830.38;5048249;28;20452;-63
2023/09/13 08:56:43;;;;;;;4.10;1.65;;;;;;;19.63;100.00;101834.63;5046427;28;20114;-65
2023/09/13 08:59:53;;;;;;;3.65;2.03;;;;;;;19.61;100.00;101844.53;5086257;27;20168;-58
2023/09/13 09:02:21;;;;;;;11.23;1.60;;;;;;;19.90;100.00;101848.22;5066995;28;20089;-65
2023/09/13 09:04:47;;;;;;;3.15;1.55;;;;;;;20.21;100.00;101858.97;5079354;28;20550;-66
2023/09/13 09:07:13;;;;;;;4.15;1.60;;;;;;;20.35;100.00;101860.84;5082540;28;20077;-65
2023/09/13 09:09:39;;;;;;;4.00;2.20;;;;;;;19.77;100.00;101860.56;5082232;28;20032;-67
2023/09/13 09:12:06;;;;;;;3.83;1.58;;;;;;;19.85;100.00;101863.69;5082647;28;20108;-68
2023/09/13 09:14:33;;;;;;;2.75;1.55;;;;;;;20.04;100.00;101874.22;5084588;28;20046;-69
2023/09/13 09:16:59;;;;;;;4.05;1.42;;;;;;;19.78;100.00;101878.34;5075188;28;20041;-63
2023/09/13 09:19:26;;;;;;;3.75;1.48;;;;;;;19.64;100.00;101874.66;5064495;28;20028;-67
2023/09/13 09:21:51;;;;;;;5.38;1.45;;;;;;;19.64;100.00;101868.44;5082670;28;20024;-63
2023/09/13 09:24:17;;;;;;;3.75;2.00;;;;;;;19.73;100.00;101880.41;5065592;28;20355;-67
2023/09/13 09:26:44;;;;;;;2.90;2.10;;;;;;;19.91;100.00;101878.50;5064790;28;20044;-67
2023/09/13 09:29:14;;;;;;;5.93;2.30;;;;;;;19.68;100.00;101873.50;5075194;28;20028;-64
2023/09/13 09:31:39;;;;;;;4.47;1.90;;;;;;;19.57;100.00;101871.44;5065739;28;20081;-69
2023/09/13 09:34:05;;;;;;;4.30;1.70;;;;;;;19.75;100.00;101870.50;5060506;28;20107;-67
2023/09/13 09:36:37;;;;;;;7.53;1.80;;;;;;;19.61;100.00;101869.47;5080620;28;20048;-71
2023/09/13 09:39:05;;;;;;;3.30;1.60;;;;;;;19.77;100.00;101888.19;5072137;28;20050;-65
2023/09/13 09:41:32;;;;;;;2.47;1.58;;;;;;;19.50;100.00;101882.56;5064201;28;20166;-67
2023/09/13 09:43:57;;;;;;;6.55;2.08;;;;;;;19.62;100.00;101883.72;5075333;28;20024;-68
2023/09/13 09:46:23;;;;;;;3.65;1.50;;;;;;;19.44;100.00;101881.97;5080619;28;20047;-66
2023/09/13 09:48:50;;;;;;;4.10;1.60;;;;;;;19.24;100.00;101883.06;5075807;28;20035;-64
2023/09/13 09:51:16;;;;;;;2.45;1.33;;;;;;;19.36;100.00;101883.31;5066548;28;20175;-64
2023/09/13 09:53:41;;;;;;;5.65;1.95;;;;;;;19.54;100.00;101892.16;5061169;28;20668;-68
2023/09/13 09:56:06;;;;;;;3.25;1.30;;;;;;;19.25;100.00;101899.94;5077155;28;20439;-68
2023/09/13 09:58:33;;;;;;;4.63;1.52;;;;;;;19.59;100.00;101900.75;5081662;28;20062;-70
2023/09/13 10:01:01;;;;;;;6.88;1.70;;;;;;;19.42;100.00;101899.88;5081695;28;20149;-65
2023/09/13 10:03:32;;;;;;;2.87;1.20;;;;;;;19.55;100.00;101905.44;5080575;28;20012;-69
2023/09/13 10:06:14;;;;;;;4.43;1.55;;;;;;;19.62;100.00;101905.94;5083048;28;20069;-68
2023/09/13 10:08:46;;;;;;;3.60;1.25;;;;;;;20.08;100.00;101913.19;5080672;28;20073;-67
2023/09/13 10:11:13;;;;;;;2.00;0.80;;;;;;;20.19;100.00;101919.75;5062463;28;20025;-67
2023/09/13 10:13:40;;;;;;;1.33;0.85;;;;;;;20.23;100.00;101923.13;5068509;28;20033;-64
2023/09/13 10:16:07;;;;;;;1.63;0.80;;;;;;;20.16;100.00;101920.78;5067222;28;20460;-71
2023/09/13 10:18:39;;;;;;;1.88;1.00;;;;;;;19.90;100.00;101924.94;5058397;28;20442;-68
2023/09/13 10:21:06;;;;;;;1.80;1.10;;;;;;;19.83;100.00;101927.94;5046294;28;20029;-66
2023/09/13 10:23:40;;;;;;;1.90;1.05;;;;;;;20.46;99.09;101932.47;5048049;28;20032;-72
2023/09/13 10:26:08;;;;;;;0.88;0.68;;;;;;;20.68;97.82;101932.06;5069049;28;20025;-67
2023/09/13 10:28:37;;;;;;;1.33;0.77;;;;;;;20.73;100.00;101926.44;5064949;28;20029;-69
2023/09/13 10:31:05;;;;;;;2.55;0.82;;;;;;;20.78;99.54;101931.50;5048648;28;20066;-64
2023/09/13 10:33:34;;;;;;;5.07;1.07;;;;;;;20.63;96.55;101942.19;5067149;28;20483;-66
2023/09/13 10:36:02;;;;;;;2.70;1.00;;;;;;;20.66;96.91;101949.16;5067282;28;20543;-69
2023/09/13 10:38:37;;;;;;;1.17;0.63;;;;;;;20.50;99.67;101946.53;5062938;28;20036;-66
2023/09/13 10:41:05;;;;;;;6.82;1.05;;;;;;;20.26;100.00;101947.88;5066113;28;20041;-67
2023/09/13 10:43:32;;;;;;;6.25;1.27;;;;;;;19.89;100.00;101944.56;5046550;28;20112;-69
2023/09/13 10:45:57;;;;;;;2.28;1.10;;;;;;;20.11;100.00;101952.31;5060595;28;20521;-67
2023/09/13 10:48:23;;;;;;;5.82;1.55;;;;;;;19.24;100.00;101962.34;5065083;28;20198;-66
2023/09/13 10:50:49;;;;;;;4.03;1.40;;;;;;;18.48;100.00;101991.91;5101541;28;20016;-67
2023/09/13 10:53:15;;;;;;;2.38;1.45;;;;;;;18.48;100.00;101996.41;5062507;28;20478;-68
2023/09/13 10:55:41;;;;;;;3.55;1.60;;;;;;;18.18;100.00;101989.78;5060978;28;20043;-67
2023/09/13 10:58:08;;;;;;;2.00;1.25;;;;;;;18.03;100.00;101996.72;5046621;28;20044;-62
2023/09/13 11:00:36;;;;;;;3.97;1.70;;;;;;;18.06;100.00;101994.75;5058512;28;20024;-67
2023/09/13 11:03:02;;;;;;;5.43;2.00;;;;;;;18.15;100.00;101998.81;5057062;28;20044;-67
2023/09/13 11:05:29;;;;;;;4.68;1.90;;;;;;;18.36;100.00;102006.72;5046280;28;20017;-64
2023/09/13 11:07:54;;;;;;;3.20;1.88;;;;;;;18.83;100.00;102009.78;5059493;28;20029;-65
2023/09/13 11:10:20;;;;;;;3.67;1.90;;;;;;;18.92;100.00;102001.31;5059679;28;20453;-67
2023/09/13 11:12:49;;;;;;;3.53;1.85;;;;;;;18.79;100.00;101997.53;5044430;28;20467;-66
2023/09/13 11:15:25;;;;;;;5.18;2.03;;;;;;;19.03;100.00;102014.09;5059078;28;20074;-67
2023/09/13 11:17:55;;;;;;;3.20;1.98;;;;;;;19.41;100.00;102005.06;5068050;28;20024;-65
2023/09/13 11:20:24;;;;;;;3.72;2.08;;;;;;;19.10;100.00;102012.00;5050992;28;20429;-64
2023/09/13 11:23:14;;;;;;;6.50;2.30;;;;;;;19.25;100.00;102017.50;5063263;28;20487;-63
2023/09/13 11:25:47;;;;;;;4.82;2.80;;;;;;;19.66;100.00;102017.09;5067620;28;20021;-64
2023/09/13 11:28:36;;;;;;;4.72;2.38;;;;;;;19.92;100.00;102022.84;5063599;28;20570;-65
2023/09/13 11:31:02;;;;;;;4.93;2.40;;;;;;;20.19;94.10;102021.41;5068426;28;20052;-60
2023/09/13 11:33:31;;;;;;;3.65;2.13;;;;;;;20.25;95.18;102028.22;5066592;28;20028;-67
2023/09/13 11:35:58;;;;;;;6.68;2.17;;;;;;;20.06;99.76;102021.25;5065729;28;20491;-67
2023/09/13 11:38:24;;;;;;;5.00;2.30;;;;;;;20.10;100.00;102012.09;5026825;28;20033;-66
2023/09/13 11:40:50;;;;;;;7.30;2.53;;;;;;;20.21;99.13;102022.22;5025388;28;20040;-65
2023/09/13 11:43:21;;;;;;;7.20;3.00;;;;;;;20.30;95.72;102023.50;5045626;28;20020;-61
2023/09/13 11:45:48;;;;;;;8.30;2.97;;;;;;;20.01;95.60;102031.31;5066109;28;20025;-64
2023/09/13 11:48:19;;;;;;;8.18;3.20;;;;;;;19.98;95.42;102028.81;5064789;28;20056;-64
2023/09/13 11:50:48;;;;;;;7.00;2.83;;;;;;;20.50;91.00;102037.56;5056279;28;20036;-66
2023/09/13 11:53:20;;;;;;;6.97;3.05;;;;;;;20.44;90.02;102036.09;5067256;28;20028;-67
2023/09/13 11:55:51;;;;;;;8.77;2.78;;;;;;;21.00;85.11;102042.75;5065900;28;20052;-66
2023/09/13 11:58:17;;;;;;;10.82;3.35;;;;;;;20.90;74.20;102043.31;5065646;28;20253;-62
2023/09/13 12:00:43;;;;;;;13.85;3.17;;;;;;;20.60;80.01;102041.44;5067091;28;20241;-66
2023/09/13 12:03:08;;;;;;;8.93;2.55;;;;;;;20.64;77.01;102052.81;5063581;28;20107;-63
2023/09/13 12:05:35;;;;;;;9.27;3.65;;;;;;;20.55;78.50;102051.53;5067830;28;20490;-65
2023/09/13 12:08:02;;;;;;;5.03;2.42;;;;;;;20.63;80.56;102051.09;5066114;28;20107;-61
2023/09/13 12:10:30;;;;;;;9.70;3.03;;;;;;;21.30;80.33;102052.59;5064962;28;20085;-66
2023/09/13 12:12:55;;;;;;;6.35;2.70;;;;;;;21.95;73.85;102051.28;5066769;28;20471;-64
2023/09/13 12:15:24;;;;;;;10.45;2.97;;;;;;;22.12;66.78;102049.34;5065875;28;20039;-63
2023/09/13 12:17:50;;;;;;;6.10;2.42;;;;;;;22.03;67.42;102053.50;5066727;28;20039;-63
2023/09/13 12:20:15;;;;;;;6.47;2.55;;;;;;;22.28;62.14;102053.75;5064884;28;20017;-65
2023/09/13 12:22:41;;;;;;;6.15;2.25;;;;;;;22.06;63.64;102057.78;5065146;28;20033;-67
2023/09/13 12:25:10;;;;;;;4.65;2.55;;;;;;;21.86;58.89;102061.75;5066667;28;20046;-64
2023/09/13 12:27:36;;;;;;;4.18;2.15;;;;;;;21.71;59.82;102076.00;5064600;28;20107;-64
2023/09/13 12:30:06;;;;;;;3.63;2.20;;;;;;;21.27;58.82;102071.53;5067640;28;20147;-65
2023/09/13 12:32:32;;;;;;;8.00;2.60;;;;;;;21.23;59.50;102081.59;5065233;28;20111;-63
2023/09/13 12:34:57;;;;;;;3.38;2.22;;;;;;;21.38;59.14;102074.44;5065568;28;20466;-66
2023/09/13 12:37:22;;;;;;;5.97;2.45;;;;;;;21.94;58.59;102072.84;5066767;28;20020;-63
2023/09/13 12:39:48;;;;;;;5.15;2.53;;;;;;;22.26;57.12;102074.44;5063448;28;20535;-66
2023/09/13 12:42:14;;;;;;;4.88;2.50;;;;;;;22.02;58.99;102080.44;5067177;28;20502;-65
2023/09/13 12:44:45;;;;;;;3.72;2.40;;;;;;;22.09;57.58;102068.34;5065449;28;20035;-67
2023/09/13 12:47:11;;;;;;;5.55;2.40;;;;;;;21.92;58.79;102078.34;5095560;28;20522;-66
2023/09/13 12:49:39;;;;;;;6.45;2.28;;;;;;;22.02;58.16;102077.75;5065923;28;20128;-64
2023/09/13 12:52:05;;;;;;;5.65;2.33;;;;;;;22.27;58.90;102073.50;5064428;28;20039;-65
2023/09/13 12:54:34;;;;;;;5.75;2.30;;;;;;;22.59;57.39;102081.31;5067011;28;20029;-63
2023/09/13 12:57:02;;;;;;;5.30;2.58;;;;;;;22.62;54.26;102081.09;5065071;28;20027;-62
2023/09/13 12:59:41;;;;;;;3.70;2.50;;;;;;;22.58;56.86;102083.13;5064932;28;20049;-64
2023/09/13 13:02:12;;;;;;;3.53;2.30;;;;;;;22.54;59.06;102083.38;5066478;28;20074;-61
2023/09/13 13:04:40;;;;;;;4.25;2.47;;;;;;;22.65;57.16;102078.22;5063341;28;20035;-56
2023/09/13 13:07:05;;;;;;;5.18;2.70;;;;;;;22.69;58.12;102079.75;5067080;28;20522;-61
2023/09/13 13:09:30;;;;;;;6.57;2.70;;;;;;;22.69;57.20;102081.56;5066394;28;20120;-62
2023/09/13 13:11:56;;;;;;;5.50;2.90;;;;;;;22.51;57.61;102089.00;5065785;28;20033;-63
2023/09/13 13:14:23;;;;;;;4.47;2.58;;;;;;;22.86;57.02;102091.19;5065796;28;20107;-62
2023/09/13 13:16:57;;;;;;;4.97;2.35;;;;;;;23.71;55.35;102084.56;5065206;28;20079;-62
2023/09/13 13:19:35;;;;;;;11.48;3.13;;;;;;;24.55;52.84;102083.09;5032681;28;20041;-63
2023/09/13 13:22:02;;;;;;;3.95;2.55;;;;;;;25.36;49.17;102085.16;5044201;28;20017;-62
2023/09/13 13:24:27;;;;;;;3.88;2.60;;;;;;;25.80;48.74;102091.72;5046948;28;20028;-61
2023/09/13 13:26:53;;;;;;;8.02;2.88;;;;;;;25.40;47.52;102090.31;5044903;28;20024;-62
2023/09/13 13:29:20;;;;;;;6.47;2.63;;;;;;;25.93;48.52;102097.00;5045144;28;20028;-63
2023/09/13 13:31:45;;;;;;;8.55;2.53;;;;;;;26.82;43.56;102087.97;5044776;28;20025;-61
2023/09/13 13:34:10;;;;;;;9.10;2.67;;;;;;;26.70;45.13;102089.88;5050893;28;20085;-63
2023/09/13 13:36:36;;;;;;;7.45;2.55;;;;;;;27.29;43.25;102102.16;5065800;28;20031;-62
2023/09/13 13:39:05;;;;;;;7.32;2.65;;;;;;;26.55;43.79;102093.88;5046080;28;20056;-60
2023/09/13 13:41:31;;;;;;;7.70;2.63;;;;;;;24.81;48.62;102091.09;5052612;28;20051;-64
2023/09/13 13:43:56;;;;;;;4.65;2.40;;;;;;;24.68;48.32;102101.06;5057143;28;20439;-60
2023/09/13 13:46:22;;;;;;;5.72;2.55;;;;;;;24.40;48.64;102095.88;5047775;28;20021;-64
2023/09/13 13:48:47;;;;;;;7.75;2.63;;;;;;;24.90;48.65;102099.47;5057534;28;20020;-64
2023/09/13 13:51:13;;;;;;;6.15;2.30;;;;;;;25.68;46.81;102097.13;5059851;28;20040;-62
2023/09/13 13:53:38;;;;;;;5.38;2.60;;;;;;;24.78;51.24;102094.00;5047462;28;20471;-63
2023/09/13 13:56:04;;;;;;;6.32;2.63;;;;;;;24.38;50.93;102091.59;5060605;28;20039;-63
2023/09/13 13:58:30;;;;;;;5.50;2.40;;;;;;;24.99;47.12;102093.38;5057095;28;20045;-63
2023/09/13 14:00:56;;;;;;;5.90;2.40;;;;;;;25.64;46.80;102092.94;5049304;28;20114;-64
2023/09/13 14:03:23;;;;;;;4.45;2.50;;;;;;;25.28;48.64;102094.81;5101196;28;20387;-67
2023/09/13 14:05:49;;;;;;;6.28;2.47;;;;;;;25.12;48.29;102096.00;5063055;28;20127;-64
2023/09/13 14:08:18;;;;;;;5.57;2.83;;;;;;;25.56;47.66;102089.97;5055623;28;20064;-62
2023/09/13 14:10:45;;;;;;;8.20;2.63;;;;;;;25.45;47.11;102094.38;5045255;28;20538;-64
2023/09/13 14:13:12;;;;;;;8.10;2.92;;;;;;;26.58;45.89;102088.22;5058937;28;20090;-62
2023/09/13 14:15:38;;;;;;;8.77;2.40;;;;;;;25.86;48.33;102104.75;5063190;28;20063;-60